ADDS METAR Data INFO
IDs: Format: Raw Decoded Include TAF

Data at: 0903 UTC 20 Oct 2017

KHDE 200855Z AUTO 16012G16KT 10SM CLR 14/09 A2987 RMK AO2 T01400090
KHDE 200835Z AUTO 17011G14KT 10SM CLR 14/09 A2988 RMK AO2 T01370090
KHDE 200815Z AUTO 17008KT 10SM CLR 14/09 A2989 RMK AO2 T01360090
KHDE 200755Z AUTO 17006KT 10SM CLR 13/09 A2990 RMK AO2 T01320087
KHDE 200735Z AUTO 17007KT 10SM CLR 14/09 A2990 RMK AO2 T01350087
KHDE 200715Z AUTO 18008KT 10SM CLR 14/09 A2991 RMK AO2 T01370087
KHDE 200655Z AUTO 18007KT 10SM CLR 14/09 A2991 RMK AO2 T01370085
KHDE 200635Z AUTO 18008KT 10SM CLR 14/09 A2992 RMK AO2 T01400085
KHDE 200615Z AUTO 17009KT 10SM CLR 14/09 A2992 RMK AO2 T01410085
KHDE 200555Z AUTO 17009G14KT 10SM CLR 14/09 A2993 RMK AO2 T01430085 10227 20143 402650013
KHDE 200535Z AUTO 17009KT 10SM CLR 15/08 A2993 RMK AO2 T01450082
KHDE 200515Z AUTO 17011KT 10SM CLR 15/08 A2993 RMK AO2 T01500081
KHDE 200455Z AUTO 17011G16KT 10SM CLR 16/08 A2993 RMK AO2 T01550080
KHDE 200435Z AUTO 17010KT 10SM CLR 16/08 A2993 RMK AO2 T01560079
KHDE 200415Z AUTO 17010KT 10SM CLR 16/08 A2993 RMK AO2 T01560076
KHDE 200355Z AUTO 17011KT 10SM CLR 16/07 A2993 RMK AO2 T01600074
KHDE 200335Z AUTO 17010KT 10SM CLR 16/07 A2993 RMK AO2 T01620071
KHDE 200315Z AUTO 16010G15KT 10SM CLR 17/07 A2993 RMK AO2 T01670068
KHDE 200255Z AUTO 17011KT 10SM CLR 18/07 A2993 RMK AO2 T01750067
KHDE 200235Z AUTO 17013KT 10SM CLR 18/07 A2993 RMK AO2 T01780066
KHDE 200215Z AUTO 16010G15KT 10SM CLR 18/07 A2993 RMK AO2 T01810065
KHDE 200155Z AUTO 16011G16KT 10SM CLR 18/07 A2993 RMK AO2 T01820069
KHDE 200135Z AUTO 15010KT 10SM CLR 19/08 A2993 RMK AO2 T01850075
KHDE 200115Z AUTO 15009KT 10SM CLR 19/08 A2993 RMK AO2 T01860076
KHDE 200055Z AUTO 15008KT 10SM CLR 19/08 A2993 RMK AO2 T01880078
KHDE 200035Z AUTO 15008KT 10SM CLR 20/08 A2993 RMK AO2 T02000080
KHDE 200015Z AUTO 16009KT 10SM CLR 22/08 A2993 RMK AO2 T02150077
KHDE 192355Z AUTO 17010KT 10SM CLR 23/08 A2993 RMK AO2 T02290080 10265 20229
KHDE 192335Z AUTO 16010KT 10SM CLR 24/08 A2993 RMK AO2 T02410081
KHDE 192315Z AUTO 17010G15KT 10SM CLR 25/09 A2993 RMK AO2 T02510085
KHDE 192255Z AUTO 16010KT 10SM CLR 25/09 A2993 RMK AO2 T02540090
KHDE 192235Z AUTO 16014G19KT 10SM CLR 26/09 A2993 RMK AO2 T02600091
KHDE 192215Z AUTO 17013KT 10SM CLR 26/10 A2994 RMK AO2 T02620097
KHDE 192155Z AUTO 18012G17KT 10SM CLR 26/10 A2994 RMK AO2 T02620101
KHDE 192135Z AUTO 17014G21KT 10SM CLR 26/10 A2995 RMK AO2 T02610098
KHDE 192115Z AUTO 19013G19KT 10SM CLR 27/10 A2995 RMK AO2 T02650098
KHDE 192055Z AUTO 18015G20KT 10SM CLR 27/10 A2995 RMK AO2 T02650096
KHDE 192035Z AUTO 17015G19KT 10SM CLR 26/10 A2995 RMK AO2 T02640095
KHDE 192015Z AUTO 18011G17KT 10SM CLR 26/09 A2996 RMK AO2 T02630094
KHDE 191955Z AUTO 17013G19KT 10SM CLR 26/10 A2997 RMK AO2 T02620095
KHDE 191935Z AUTO 16010G19KT 10SM CLR 26/10 A2998 RMK AO2 T02550097
KHDE 191915Z AUTO 17010G15KT 10SM CLR 25/09 A2999 RMK AO2 T02510092
KHDE 191855Z AUTO 17012KT 10SM CLR 25/08 A3000 RMK AO2 T02470084
KHDE 191835Z AUTO 18009KT 10SM CLR 25/09 A3001 RMK AO2 T02500086
KHDE 191815Z AUTO 15009G15KT 10SM CLR 24/08 A3002 RMK AO2 T02440081
KHDE 191755Z AUTO 17005KT 10SM CLR 23/08 A3003 RMK AO2 T02340084 10234 20013
KHDE 191735Z AUTO 17006KT 10SM CLR 22/08 A3004 RMK AO2 T02230077
KHDE 191715Z AUTO 17004KT 10SM CLR 22/09 A3004 RMK AO2 T02150085
KHDE 191655Z AUTO 17006KT 10SM CLR 21/08 A3005 RMK AO2 T02070084
KHDE 191635Z AUTO 18005KT 10SM CLR 20/08 A3006 RMK AO2 T01950084
KHDE 191615Z AUTO 20007KT 10SM CLR 19/08 A3006 RMK AO2 T01860079
KHDE 191555Z AUTO 18006KT 10SM CLR 17/08 A3007 RMK AO2 T01670080
KHDE 191535Z AUTO 19004KT 10SM CLR 15/08 A3007 RMK AO2 T01470079
KHDE 191515Z AUTO 00000KT 10SM CLR 13/07 A3007 RMK AO2 T01290066
KHDE 191415Z AUTO 00000KT 10SM CLR 07/05 A3007 RMK AO2 T00720046
KHDE 191355Z AUTO 00000KT 10SM CLR 05/03 A3006 RMK AO2 T00500032
KHDE 191335Z AUTO 00000KT 10SM CLR 03/02 A3007 RMK AO2 T00330020
KHDE 191315Z AUTO 00000KT 10SM CLR 02/01 A3006 RMK AO2 T00230012
KHDE 191255Z AUTO 00000KT 10SM CLR 02/01 A3006 RMK AO2 T00240010
KHDE 191235Z AUTO 00000KT 10SM CLR 02/01 A3006 RMK AO2 T00170008
KHDE 191215Z AUTO 00000KT 10SM CLR 03/02 A3005 RMK AO2 T00270018
KHDE 191155Z AUTO 35004KT 10SM CLR 02/01 A3005 RMK AO2 T00210013 10066 20020
KHDE 191135Z AUTO 00000KT 10SM CLR 03/02 A3005 RMK AO2 T00280016
KHDE 191115Z AUTO 00000KT 10SM CLR 03/02 A3004 RMK AO2 T00290015
KHDE 191055Z AUTO 33003KT 10SM CLR 03/02 A3004 RMK AO2 T00300020
KHDE 191035Z AUTO 00000KT 10SM CLR 02/01 A3005 RMK AO2 T00240007
KHDE 191015Z AUTO 00000KT 10SM CLR 04/01 A3004 RMK AO2 T00360014
KHDE 190955Z AUTO 33003KT 10SM CLR 03/01 A3004 RMK AO2 T00320013
KHDE 190935Z AUTO 31003KT 10SM CLR 03/02 A3005 RMK AO2 T00330016
KHDE 190915Z AUTO 00000KT 10SM CLR 03/02 A3005 RMK AO2 T00270016
KHDE 190855Z AUTO 00000KT 10SM CLR 04/02 A3006 RMK AO2 T00410019
KHDE 190835Z AUTO 00000KT 10SM CLR 04/02 A3006 RMK AO2 T00380016
KHDE 190815Z AUTO 00000KT 10SM CLR 04/02 A3007 RMK AO2 T00410021
KHDE 190755Z AUTO 00000KT 10SM CLR 05/02 A3007 RMK AO2 T00530023
KHDE 190735Z AUTO 00000KT 10SM CLR 04/02 A3007 RMK AO2 T00440018
KHDE 190715Z AUTO 00000KT 10SM CLR 05/02 A3008 RMK AO2 T00490023
KHDE 190655Z AUTO 36004KT 10SM CLR 04/03 A3008 RMK AO2 T00430025
KHDE 190635Z AUTO 00000KT 10SM CLR 05/02 A3008 RMK AO2 T00540022
KHDE 190615Z AUTO 00000KT 10SM CLR 06/03 A3008 RMK AO2 T00640027
KHDE 190555Z AUTO 02004KT 10SM CLR 05/02 A3008 RMK AO2 T00520020 10171 20052 402450052
KHDE 190535Z AUTO 36003KT 10SM CLR 06/03 A3008 RMK AO2 T00580028
KHDE 190515Z AUTO 35003KT 10SM CLR 07/03 A3009 RMK AO2 T00660030
KHDE 190455Z AUTO 34004KT 10SM CLR 06/03 A3009 RMK AO2 T00630027
KHDE 190435Z AUTO 00000KT 10SM CLR 07/03 A3009 RMK AO2 T00670031
KHDE 190415Z AUTO 35004KT 10SM CLR 07/03 A3009 RMK AO2 T00670030
KHDE 190355Z AUTO 34003KT 10SM CLR 07/03 A3009 RMK AO2 T00730032
KHDE 190335Z AUTO 34003KT 10SM CLR 08/03 A3009 RMK AO2 T00800031
KHDE 190315Z AUTO 35004KT 10SM CLR 08/03 A3009 RMK AO2 T00820032
KHDE 190255Z AUTO 35003KT 10SM CLR 09/03 A3009 RMK AO2 T00870031
KHDE 190235Z AUTO 36004KT 10SM CLR 09/03 A3009 RMK AO2 T00930030
KHDE 190215Z AUTO 36004KT 10SM CLR 11/03 A3008 RMK AO2 T01100030
KHDE 190155Z AUTO 01005KT 10SM CLR 11/03 A3008 RMK AO2 T01110030
KHDE 190135Z AUTO 01006KT 10SM CLR 12/03 A3008 RMK AO2 T01160030
KHDE 190115Z AUTO 36004KT 10SM CLR 13/03 A3008 RMK AO2 T01300031
KHDE 190055Z AUTO 01005KT 10SM CLR 13/03 A3008 RMK AO2 T01280030
KHDE 190035Z AUTO 01004KT 10SM CLR 13/03 A3007 RMK AO2 T01330032
KHDE 190015Z AUTO 01005KT 10SM CLR 15/03 A3006 RMK AO2 T01520030
KHDE 182355Z AUTO 02006KT 10SM CLR 17/03 A3005 RMK AO2 T01730030 10245 20173
KHDE 182335Z AUTO 02008KT 10SM CLR 19/03 A3005 RMK AO2 T01880034
KHDE 182315Z AUTO 02008KT 10SM CLR 20/04 A3004 RMK AO2 T01990036
KHDE 182255Z AUTO 02013KT 10SM CLR 21/03 A3003 RMK AO2 T02110034
KHDE 182235Z AUTO 02012G16KT 10SM CLR 22/03 A3002 RMK AO2 T02170034
KHDE 182215Z AUTO 01014KT 10SM CLR 22/04 A3001 RMK AO2 T02210035
KHDE 182155Z AUTO 02013KT 10SM CLR 23/04 A3001 RMK AO2 T02270036
KHDE 182135Z AUTO 01011G17KT 10SM CLR 23/03 A3000 RMK AO2 T02300032
KHDE 182115Z AUTO 03012G16KT 10SM CLR 23/03 A3000 RMK AO2 T02310034